Time;durP1;ratioP1;P1;durP2;ratioP2;P2;SDS_P1;SDS_P2;PMS_P1;PMS_P2;Temp;Humidity;BMP_temperature;BMP_pressure;BME280_temperature;BME280_humidity;BME280_pressure;Samples;Min_cycle;Max_cycle;Signal;HPM_P1;HPM_P2
2023/08/29 00:00:23;;;;;;;2.08;1.17;;;14.40;99.90;;;;;;5016206;28;20069;-72
2023/08/29 00:02:49;;;;;;;4.63;1.23;;;14.40;99.90;;;;;;5016408;28;20113;-73
2023/08/29 00:05:14;;;;;;;4.55;1.13;;;14.40;99.90;;;;;;5019481;28;20040;-73
2023/08/29 00:07:41;;;;;;;1.25;0.80;;;14.40;99.90;;;;;;5016255;28;20045;-72
2023/08/29 00:10:07;;;;;;;4.30;1.33;;;14.30;99.90;;;;;;5018865;28;20026;-72
2023/08/29 00:12:33;;;;;;;1.25;0.75;;;14.30;99.90;;;;;;5018295;28;20040;-72
2023/08/29 00:15:00;;;;;;;1.88;0.98;;;14.30;99.90;;;;;;5017088;28;20026;-73
2023/08/29 00:17:26;;;;;;;2.63;1.10;;;14.30;99.90;;;;;;5019561;28;20043;-74
2023/08/29 00:19:52;;;;;;;2.15;1.13;;;14.30;99.90;;;;;;5021340;28;20049;-73
2023/08/29 00:22:18;;;;;;;3.38;1.30;;;14.30;99.90;;;;;;5016558;28;20104;-72
2023/08/29 00:24:44;;;;;;;1.70;0.80;;;14.30;99.90;;;;;;5020351;28;20488;-71
2023/08/29 00:27:10;;;;;;;2.13;1.00;;;14.20;99.90;;;;;;5017675;28;20036;-74
2023/08/29 00:29:36;;;;;;;1.75;1.00;;;14.20;99.90;;;;;;5019246;28;20121;-73
2023/08/29 00:32:01;;;;;;;3.72;0.93;;;14.20;99.90;;;;;;5019777;28;20476;-72
2023/08/29 00:34:27;;;;;;;7.88;1.20;;;14.20;99.90;;;;;;5018697;28;20057;-74
2023/08/29 00:36:53;;;;;;;4.40;1.45;;;14.20;99.90;;;;;;5017548;28;20087;-72
2023/08/29 00:39:18;;;;;;;2.70;1.50;;;14.20;99.90;;;;;;5020306;28;20080;-72
2023/08/29 00:41:48;;;;;;;1.65;0.90;;;14.20;99.90;;;;;;5016804;28;20405;-71
2023/08/29 00:44:14;;;;;;;3.50;1.15;;;14.20;99.90;;;;;;5019989;28;20389;-73
2023/08/29 00:46:39;;;;;;;2.08;1.10;;;14.10;99.90;;;;;;5017066;28;20053;-72
2023/08/29 00:49:05;;;;;;;5.75;1.60;;;14.10;99.90;;;;;;5019093;28;20048;-72
2023/08/29 00:51:31;;;;;;;3.63;1.25;;;14.10;99.90;;;;;;5000747;28;20041;-72
2023/08/29 00:53:57;;;;;;;2.85;1.20;;;14.00;99.90;;;;;;5018201;28;20034;-72
2023/08/29 00:56:23;;;;;;;1.30;0.90;;;14.00;99.90;;;;;;5019223;28;20120;-72
2023/08/29 00:58:49;;;;;;;3.38;0.82;;;14.00;99.90;;;;;;5016874;28;20569;-73
2023/08/29 01:01:16;;;;;;;5.43;1.35;;;13.90;99.90;;;;;;5016500;28;20117;-74
2023/08/29 01:03:42;;;;;;;2.53;1.13;;;13.90;99.90;;;;;;5002683;28;20088;-72
2023/08/29 01:06:08;;;;;;;4.43;1.38;;;13.90;99.90;;;;;;5017066;28;20062;-72
2023/08/29 01:08:34;;;;;;;2.42;1.13;;;13.90;99.90;;;;;;5018780;28;20038;-72
2023/08/29 01:11:48;;;;;;;4.05;1.33;;;13.90;99.90;;;;;;5019020;28;20056;-73
2023/08/29 01:14:14;;;;;;;3.13;1.20;;;13.90;99.90;;;;;;4966323;28;20088;-72
2023/08/29 01:16:54;;;;;;;3.10;1.00;;;13.80;99.90;;;;;;5019212;28;20073;-72
2023/08/29 01:19:23;;;;;;;4.90;1.33;;;13.80;99.90;;;;;;5013657;28;20033;-74
2023/08/29 01:22:07;;;;;;;2.05;1.17;;;13.80;99.90;;;;;;5024434;28;20371;-71
2023/08/29 01:24:44;;;;;;;2.45;0.95;;;13.70;99.90;;;;;;5008866;28;20044;-72
2023/08/29 01:27:11;;;;;;;6.03;1.73;;;13.70;99.90;;;;;;5007065;28;20497;-71
2023/08/29 01:29:37;;;;;;;2.83;1.38;;;13.70;99.90;;;;;;5026395;28;20148;-73
2023/08/29 01:32:04;;;;;;;2.45;1.10;;;13.70;99.90;;;;;;5006207;28;20169;-72
2023/08/29 01:34:30;;;;;;;2.10;1.35;;;13.60;99.90;;;;;;5022010;28;20041;-72
2023/08/29 01:36:56;;;;;;;4.70;1.02;;;13.60;99.90;;;;;;5021734;28;20498;-74
2023/08/29 01:39:21;;;;;;;3.35;0.98;;;13.60;99.90;;;;;;5022877;28;20041;-71
2023/08/29 01:41:47;;;;;;;2.40;0.90;;;13.50;99.90;;;;;;5002527;28;20144;-72
2023/08/29 01:44:13;;;;;;;2.33;1.15;;;13.50;99.90;;;;;;5020073;28;20034;-72
2023/08/29 01:46:38;;;;;;;2.15;0.80;;;13.50;99.90;;;;;;5026441;28;20033;-70
2023/08/29 01:49:04;;;;;;;2.47;0.80;;;13.50;99.90;;;;;;5026480;28;20030;-73
2023/08/29 01:51:30;;;;;;;1.75;0.90;;;13.40;99.90;;;;;;5023962;28;20033;-74
2023/08/29 01:53:56;;;;;;;3.10;0.98;;;13.40;99.90;;;;;;5022042;28;20030;-72
2023/08/29 01:56:25;;;;;;;2.08;1.10;;;13.40;99.90;;;;;;5000907;28;20049;-71
2023/08/29 01:58:54;;;;;;;2.55;0.98;;;13.40;99.90;;;;;;5020142;28;20498;-73
2023/08/29 02:01:20;;;;;;;2.15;0.93;;;13.40;99.90;;;;;;5022440;28;20497;-71
2023/08/29 02:03:46;;;;;;;2.22;1.20;;;13.30;99.90;;;;;;5020241;28;20539;-74
2023/08/29 02:06:11;;;;;;;1.58;0.88;;;13.30;99.90;;;;;;5023020;28;20037;-73
2023/08/29 02:08:37;;;;;;;2.75;1.30;;;13.30;99.90;;;;;;5020241;28;20397;-72
2023/08/29 02:11:03;;;;;;;5.43;2.05;;;13.30;99.90;;;;;;5022370;28;20030;-73
2023/08/29 02:13:28;;;;;;;2.47;1.30;;;13.20;99.90;;;;;;5020836;28;20048;-72
2023/08/29 02:15:54;;;;;;;2.58;0.70;;;13.20;99.90;;;;;;5020941;28;20057;-74
2023/08/29 02:18:19;;;;;;;3.78;1.45;;;13.20;99.90;;;;;;5021930;28;20037;-73
2023/08/29 02:20:45;;;;;;;1.77;0.80;;;13.20;99.90;;;;;;5019334;28;20038;-72
2023/08/29 02:23:11;;;;;;;5.13;1.00;;;13.20;99.90;;;;;;5019393;28;20049;-72
2023/08/29 02:25:36;;;;;;;3.58;1.08;;;13.20;99.90;;;;;;5020369;28;20501;-72
2023/08/29 02:28:02;;;;;;;1.85;0.93;;;13.10;99.90;;;;;;5024795;28;20037;-72
2023/08/29 02:30:27;;;;;;;1.83;1.20;;;13.10;99.90;;;;;;5020380;28;20030;-72
2023/08/29 02:32:53;;;;;;;2.58;1.20;;;13.10;99.90;;;;;;5024253;28;20045;-73
2023/08/29 02:35:18;;;;;;;2.08;0.95;;;13.10;99.90;;;;;;5019979;28;20526;-73
2023/08/29 02:37:44;;;;;;;3.42;1.00;;;13.10;99.90;;;;;;5022115;28;20401;-74
2023/08/29 02:40:10;;;;;;;2.30;1.10;;;13.00;99.90;;;;;;5018953;28;20029;-74
2023/08/29 02:42:36;;;;;;;2.58;1.20;;;13.00;99.90;;;;;;5023179;28;20037;-74
2023/08/29 02:45:03;;;;;;;1.27;0.77;;;13.00;99.90;;;;;;5004378;28;20062;-72
2023/08/29 02:47:29;;;;;;;2.72;1.30;;;13.00;99.90;;;;;;5019565;28;20025;-72
2023/08/29 02:49:55;;;;;;;3.78;1.48;;;13.00;99.90;;;;;;5003387;28;20164;-72
2023/08/29 02:52:20;;;;;;;3.67;0.75;;;12.90;99.90;;;;;;5003523;28;20493;-73
2023/08/29 02:54:46;;;;;;;2.53;1.20;;;13.00;99.90;;;;;;5018963;28;20214;-72
2023/08/29 02:57:11;;;;;;;1.35;0.93;;;13.00;99.90;;;;;;5018273;28;20045;-74
2023/08/29 02:59:37;;;;;;;2.00;1.00;;;12.90;99.90;;;;;;5016540;28;20040;-75
2023/08/29 03:02:03;;;;;;;3.00;1.30;;;12.90;99.90;;;;;;5018861;28;20058;-72
2023/08/29 03:04:30;;;;;;;1.30;0.98;;;13.00;99.90;;;;;;5020101;28;20125;-75
2023/08/29 03:06:55;;;;;;;1.67;0.98;;;12.90;99.90;;;;;;5002831;28;20390;-75
2023/08/29 03:09:21;;;;;;;2.65;1.30;;;12.90;99.90;;;;;;5019782;28;20034;-73
2023/08/29 03:11:47;;;;;;;1.42;0.80;;;12.90;99.90;;;;;;5021648;28;20526;-74
2023/08/29 03:14:13;;;;;;;2.10;1.23;;;12.90;99.90;;;;;;5003977;28;20120;-72
2023/08/29 03:16:38;;;;;;;2.63;1.02;;;12.90;99.90;;;;;;5017937;28;20087;-73
2023/08/29 03:19:04;;;;;;;1.95;1.00;;;12.90;99.90;;;;;;5022136;28;20037;-73
2023/08/29 03:21:30;;;;;;;1.48;0.95;;;12.90;99.90;;;;;;5018342;28;20064;-72
2023/08/29 03:23:55;;;;;;;1.70;0.90;;;12.80;99.90;;;;;;5002883;28;20057;-74
2023/08/29 03:26:21;;;;;;;1.80;0.95;;;12.80;99.90;;;;;;5021768;28;20037;-74
2023/08/29 03:28:47;;;;;;;2.97;0.80;;;12.80;99.90;;;;;;5020528;28;20044;-73
2023/08/29 03:31:15;;;;;;;1.90;0.90;;;12.80;99.90;;;;;;5018240;28;20034;-72
2023/08/29 03:33:42;;;;;;;1.90;1.13;;;12.70;99.90;;;;;;5018037;28;20045;-73
2023/08/29 03:36:08;;;;;;;2.00;0.80;;;12.70;99.90;;;;;;5017830;28;20121;-74
2023/08/29 03:38:39;;;;;;;1.60;0.98;;;12.70;99.90;;;;;;5018091;28;20038;-72
2023/08/29 03:41:06;;;;;;;2.53;0.90;;;12.70;99.90;;;;;;5021731;28;20037;-76
2023/08/29 03:43:33;;;;;;;1.65;0.98;;;12.70;99.90;;;;;;5017769;28;20069;-74
2023/08/29 03:46:04;;;;;;;3.00;1.23;;;12.60;99.90;;;;;;5018310;28;20060;-73
2023/08/29 03:48:30;;;;;;;2.50;1.05;;;12.60;99.90;;;;;;5019911;28;20037;-74
2023/08/29 03:50:56;;;;;;;2.25;0.85;;;12.60;99.90;;;;;;5019059;28;20095;-74
2023/08/29 03:53:25;;;;;;;2.25;0.85;;;12.60;99.90;;;;;;5019004;28;20689;-73
2023/08/29 03:55:51;;;;;;;2.90;0.80;;;12.60;99.90;;;;;;5018973;28;20041;-73
2023/08/29 03:58:16;;;;;;;1.98;0.82;;;12.60;99.90;;;;;;5016470;28;20026;-73
2023/08/29 04:00:43;;;;;;;6.32;1.10;;;12.60;99.90;;;;;;5020180;28;20057;-73
2023/08/29 04:03:09;;;;;;;2.13;1.20;;;12.60;99.90;;;;;;5017631;28;20033;-73
2023/08/29 04:05:37;;;;;;;2.33;0.82;;;12.60;99.90;;;;;;5002949;28;20037;-74
2023/08/29 04:08:06;;;;;;;1.98;1.13;;;12.60;99.90;;;;;;5013867;28;20030;-72
2023/08/29 04:10:39;;;;;;;1.98;0.82;;;12.60;99.90;;;;;;5020097;28;20037;-72
2023/08/29 04:13:06;;;;;;;2.63;0.90;;;12.70;99.90;;;;;;4996157;28;20424;-73
2023/08/29 04:15:34;;;;;;;2.10;1.17;;;12.70;99.90;;;;;;5017233;28;20033;-73
2023/08/29 04:18:01;;;;;;;6.78;1.42;;;12.70;99.90;;;;;;5020890;28;20028;-72
2023/08/29 04:20:28;;;;;;;2.97;1.20;;;12.70;99.90;;;;;;5017983;28;20112;-73
2023/08/29 04:22:54;;;;;;;1.98;1.00;;;12.70;99.90;;;;;;5017271;28;20521;-73
2023/08/29 04:25:20;;;;;;;2.75;1.17;;;12.70;99.90;;;;;;4999232;28;20454;-73
2023/08/29 04:27:47;;;;;;;2.58;1.00;;;12.70;99.90;;;;;;5021266;28;20041;-72
2023/08/29 04:30:14;;;;;;;1.88;1.17;;;12.80;99.90;;;;;;5016817;28;20022;-74
2023/08/29 04:32:39;;;;;;;2.42;1.20;;;12.70;99.90;;;;;;5003630;28;20030;-73
2023/08/29 04:35:06;;;;;;;3.08;1.10;;;12.80;99.90;;;;;;4994747;28;20495;-72
2023/08/29 04:37:33;;;;;;;2.08;1.10;;;12.70;99.90;;;;;;5008164;28;20045;-74
2023/08/29 04:39:59;;;;;;;2.67;1.38;;;12.70;99.90;;;;;;4997598;28;20033;-73
2023/08/29 04:42:25;;;;;;;3.83;1.10;;;12.70;99.90;;;;;;5019708;28;20042;-73
2023/08/29 04:44:53;;;;;;;2.90;1.10;;;12.70;99.90;;;;;;5018126;28;20049;-72
2023/08/29 04:47:19;;;;;;;2.33;1.10;;;12.70;99.90;;;;;;5012936;28;20049;-74
2023/08/29 04:49:45;;;;;;;2.63;1.67;;;12.70;99.90;;;;;;5018375;28;20030;-72
2023/08/29 04:52:10;;;;;;;2.80;1.15;;;12.70;99.90;;;;;;4999369;28;20548;-73
2023/08/29 04:54:36;;;;;;;1.90;1.20;;;12.70;99.90;;;;;;5019900;28;20042;-72
2023/08/29 04:57:04;;;;;;;4.03;1.23;;;12.70;99.90;;;;;;5019460;28;20144;-73
2023/08/29 04:59:29;;;;;;;2.70;1.10;;;12.70;99.90;;;;;;5015848;28;20117;-74
2023/08/29 05:01:55;;;;;;;3.97;1.10;;;12.70;99.90;;;;;;5023808;28;20148;-73
2023/08/29 05:04:20;;;;;;;5.10;1.52;;;12.70;99.90;;;;;;5004234;28;20030;-73
2023/08/29 05:06:46;;;;;;;4.05;1.50;;;12.70;99.90;;;;;;5012928;28;20370;-71
2023/08/29 05:09:11;;;;;;;2.45;1.52;;;12.70;99.90;;;;;;5002048;28;20072;-75
2023/08/29 05:11:37;;;;;;;4.53;1.80;;;12.80;99.90;;;;;;5009727;28;20038;-73
2023/08/29 05:14:03;;;;;;;2.53;1.48;;;12.80;99.90;;;;;;5029751;28;20045;-72
2023/08/29 05:16:28;;;;;;;2.75;1.73;;;12.80;99.90;;;;;;5028244;28;20033;-74
2023/08/29 05:18:54;;;;;;;3.60;1.75;;;12.80;99.90;;;;;;5029055;28;20053;-73
2023/08/29 05:21:19;;;;;;;2.45;1.45;;;12.80;99.90;;;;;;5029370;28;20029;-72
2023/08/29 05:23:45;;;;;;;2.75;1.42;;;12.90;99.90;;;;;;5010884;28;20040;-72
2023/08/29 05:26:10;;;;;;;3.72;1.38;;;13.00;99.90;;;;;;5011068;28;20120;-72
2023/08/29 05:28:36;;;;;;;2.60;1.63;;;13.00;99.90;;;;;;5025623;28;20046;-74
2023/08/29 05:31:02;;;;;;;3.65;1.75;;;13.00;99.90;;;;;;5027055;28;20029;-73
2023/08/29 05:33:27;;;;;;;5.55;1.88;;;13.00;99.90;;;;;;5028339;28;20505;-73
2023/08/29 05:35:53;;;;;;;3.08;1.38;;;13.00;99.90;;;;;;5028700;28;20049;-71
2023/08/29 05:38:18;;;;;;;2.88;1.85;;;13.10;99.90;;;;;;5026609;28;20042;-72
2023/08/29 05:40:44;;;;;;;4.07;1.77;;;13.10;99.90;;;;;;5028166;28;20081;-74
2023/08/29 05:43:09;;;;;;;5.25;1.50;;;13.10;99.90;;;;;;5029051;28;20042;-74
2023/08/29 05:45:35;;;;;;;6.25;2.30;;;13.20;99.90;;;;;;5028322;28;20397;-72
2023/08/29 05:48:00;;;;;;;5.55;1.83;;;13.20;99.90;;;;;;5009981;28;20113;-72
2023/08/29 05:50:26;;;;;;;4.65;2.10;;;13.40;99.90;;;;;;5028323;28;20045;-72
2023/08/29 05:52:52;;;;;;;6.25;2.40;;;13.40;99.90;;;;;;5028361;28;20064;-74
2023/08/29 05:55:18;;;;;;;6.03;2.17;;;13.50;99.90;;;;;;5027996;28;20156;-74
2023/08/29 05:57:43;;;;;;;4.13;1.92;;;13.60;99.90;;;;;;5025698;28;20111;-74
2023/08/29 06:00:13;;;;;;;4.20;2.30;;;13.70;99.90;;;;;;5028655;28;20624;-74
2023/08/29 06:02:39;;;;;;;5.18;2.30;;;13.80;99.90;;;;;;5028066;28;20044;-74
2023/08/29 06:05:06;;;;;;;4.10;2.40;;;13.90;99.90;;;;;;5028643;28;20480;-74
2023/08/29 06:07:33;;;;;;;4.25;2.63;;;14.00;99.90;;;;;;5023892;28;20042;-73
2023/08/29 06:09:58;;;;;;;4.18;2.13;;;14.10;99.90;;;;;;5028130;28;20033;-73
2023/08/29 06:12:24;;;;;;;5.15;2.58;;;14.10;99.90;;;;;;5027791;28;20041;-73
2023/08/29 06:14:49;;;;;;;6.30;2.83;;;14.30;99.90;;;;;;5027430;28;20029;-73
2023/08/29 06:17:15;;;;;;;7.80;2.92;;;14.30;99.90;;;;;;5009558;28;20125;-73
2023/08/29 06:19:41;;;;;;;7.25;3.67;;;14.40;99.90;;;;;;5027415;28;20064;-73
2023/08/29 06:22:06;;;;;;;6.90;2.53;;;14.50;99.90;;;;;;5019462;28;20488;-75
2023/08/29 06:24:33;;;;;;;6.20;3.08;;;14.60;99.90;;;;;;5024271;28;20127;-73
2023/08/29 06:26:59;;;;;;;4.70;2.45;;;14.60;99.90;;;;;;5022300;28;20057;-72
2023/08/29 06:29:24;;;;;;;5.38;2.55;;;14.70;99.90;;;;;;5025023;28;20041;-73
2023/08/29 06:31:50;;;;;;;4.18;2.28;;;14.80;99.90;;;;;;5025321;28;20417;-73
2023/08/29 06:34:15;;;;;;;4.43;2.33;;;14.80;99.90;;;;;;5026698;28;20393;-73
2023/08/29 06:36:41;;;;;;;4.32;2.10;;;14.90;99.90;;;;;;5024463;28;20045;-71
2023/08/29 06:39:08;;;;;;;5.30;2.65;;;15.10;99.90;;;;;;5024436;28;20045;-75
2023/08/29 06:41:34;;;;;;;3.70;1.92;;;15.40;99.90;;;;;;5026883;28;20036;-74
2023/08/29 06:43:59;;;;;;;4.25;1.63;;;15.80;99.90;;;;;;5026895;28;20029;-72
2023/08/29 06:46:25;;;;;;;2.10;1.30;;;16.10;99.90;;;;;;5023893;28;20041;-72
2023/08/29 06:48:50;;;;;;;3.00;1.50;;;16.50;99.90;;;;;;5026332;28;20116;-74
2023/08/29 06:51:16;;;;;;;3.50;1.52;;;16.80;99.90;;;;;;5026401;28;20760;-73
2023/08/29 06:53:41;;;;;;;4.00;1.30;;;16.90;99.90;;;;;;5026408;28;20385;-73
2023/08/29 06:56:07;;;;;;;1.95;1.10;;;17.00;99.90;;;;;;5026422;28;20037;-71
2023/08/29 06:58:32;;;;;;;2.55;1.40;;;17.10;99.90;;;;;;5007308;28;20055;-74
2023/08/29 07:00:58;;;;;;;5.38;1.48;;;17.10;99.90;;;;;;5026926;28;20030;-72
2023/08/29 07:03:23;;;;;;;2.38;1.33;;;17.10;99.90;;;;;;5006914;28;20184;-71
2023/08/29 07:05:49;;;;;;;3.17;1.20;;;17.00;99.90;;;;;;5007935;28;20033;-72
2023/08/29 07:08:15;;;;;;;1.58;1.00;;;16.90;99.90;;;;;;5025577;28;20040;-74
2023/08/29 07:10:40;;;;;;;2.30;1.23;;;16.80;99.90;;;;;;5026103;28;20424;-72
2023/08/29 07:13:06;;;;;;;3.03;1.20;;;16.80;99.90;;;;;;5026345;28;20102;-77
2023/08/29 07:15:31;;;;;;;3.72;1.30;;;16.70;99.90;;;;;;5008086;28;20130;-72
2023/08/29 07:17:57;;;;;;;4.43;0.93;;;16.60;99.90;;;;;;5026699;28;20648;-73
2023/08/29 07:20:23;;;;;;;4.70;1.40;;;16.60;99.90;;;;;;5023435;28;20042;-73
2023/08/29 07:22:48;;;;;;;2.50;1.45;;;16.60;99.90;;;;;;5022187;28;20041;-71
2023/08/29 07:25:15;;;;;;;3.47;1.65;;;16.60;99.90;;;;;;5008160;28;20446;-73
2023/08/29 07:27:41;;;;;;;3.78;1.67;;;16.70;99.90;;;;;;5025422;28;20045;-74
2023/08/29 07:30:10;;;;;;;2.65;1.25;;;16.70;99.90;;;;;;5023569;28;20033;-72
2023/08/29 07:32:36;;;;;;;3.30;1.20;;;16.70;99.90;;;;;;5005459;28;20100;-72
2023/08/29 07:35:02;;;;;;;4.07;1.67;;;16.80;99.90;;;;;;5025574;28;20044;-71
2023/08/29 07:37:28;;;;;;;3.42;1.60;;;16.90;99.90;;;;;;5024699;28;20041;-71
2023/08/29 07:39:53;;;;;;;3.20;1.60;;;16.90;99.90;;;;;;5025519;28;20030;-73
2023/08/29 07:42:19;;;;;;;3.15;1.83;;;16.90;99.90;;;;;;5025569;28;20037;-73
2023/08/29 07:44:45;;;;;;;3.33;1.15;;;17.00;99.90;;;;;;5023098;28;20033;-73
2023/08/29 07:47:10;;;;;;;3.10;1.17;;;17.10;99.90;;;;;;5019469;28;20480;-73
2023/08/29 07:49:36;;;;;;;1.70;0.90;;;17.00;99.90;;;;;;5023935;28;20106;-72
2023/08/29 07:52:02;;;;;;;4.18;1.63;;;17.10;99.90;;;;;;5022838;28;20073;-71
2023/08/29 07:54:28;;;;;;;2.72;1.20;;;17.10;99.90;;;;;;5019661;28;20026;-74
2023/08/29 07:56:53;;;;;;;1.73;1.13;;;17.20;99.90;;;;;;5023908;28;20095;-73
2023/08/29 07:59:20;;;;;;;3.15;0.90;;;17.20;99.90;;;;;;5022375;28;20083;-72
2023/08/29 08:01:46;;;;;;;3.03;1.20;;;17.30;99.90;;;;;;5025070;28;20112;-74
2023/08/29 08:04:12;;;;;;;1.83;0.98;;;17.40;99.90;;;;;;5025320;28;20044;-74
2023/08/29 08:06:38;;;;;;;1.48;0.95;;;17.40;99.90;;;;;;5024963;28;20045;-74
2023/08/29 08:09:04;;;;;;;1.98;1.00;;;17.50;99.90;;;;;;5024078;28;20034;-72
2023/08/29 08:11:30;;;;;;;5.85;1.60;;;17.60;99.90;;;;;;5023965;28;20030;-74
2023/08/29 08:13:56;;;;;;;1.60;0.90;;;17.60;99.90;;;;;;5025826;28;20064;-73
2023/08/29 08:16:22;;;;;;;2.10;1.08;;;17.70;99.90;;;;;;5024907;28;20053;-74
2023/08/29 08:18:47;;;;;;;2.70;0.80;;;17.80;99.90;;;;;;5024624;28;20022;-73
2023/08/29 08:21:13;;;;;;;5.57;0.90;;;17.90;99.90;;;;;;5022676;28;20397;-73
2023/08/29 08:23:38;;;;;;;1.38;0.85;;;18.00;99.90;;;;;;5021646;28;20030;-72
2023/08/29 08:26:04;;;;;;;2.17;1.13;;;18.10;99.90;;;;;;5025352;28;20397;-71
2023/08/29 08:28:30;;;;;;;2.22;1.10;;;18.20;99.90;;;;;;5024322;28;20033;-71
2023/08/29 08:30:55;;;;;;;2.67;1.05;;;18.20;99.90;;;;;;5023541;28;20033;-72
2023/08/29 08:33:21;;;;;;;4.53;1.27;;;18.30;99.90;;;;;;5024394;28;20033;-73
2023/08/29 08:35:46;;;;;;;2.08;0.95;;;18.40;99.90;;;;;;5024496;28;20566;-73
2023/08/29 08:38:12;;;;;;;1.85;0.73;;;18.60;99.90;;;;;;5022015;28;20033;-72
2023/08/29 08:40:38;;;;;;;1.95;0.82;;;18.80;99.90;;;;;;5024282;28;20034;-73
2023/08/29 08:43:05;;;;;;;1.33;0.75;;;18.90;99.90;;;;;;5025725;28;20026;-73
2023/08/29 08:45:31;;;;;;;1.90;0.95;;;19.00;99.90;;;;;;5023895;28;20448;-74
2023/08/29 08:47:59;;;;;;;2.10;0.77;;;19.20;99.90;;;;;;5023372;28;20108;-72
2023/08/29 08:50:25;;;;;;;4.55;1.08;;;19.20;99.90;;;;;;5016773;28;20033;-72
2023/08/29 08:52:51;;;;;;;2.40;0.55;;;19.20;99.90;;;;;;5023809;28;20040;-73
2023/08/29 08:55:17;;;;;;;2.10;1.00;;;19.30;99.90;;;;;;5017839;28;20041;-72
2023/08/29 08:57:43;;;;;;;2.22;0.60;;;19.20;99.90;;;;;;5022149;28;20409;-74
2023/08/29 09:00:09;;;;;;;3.17;0.88;;;19.20;99.90;;;;;;5024840;28;20080;-72
2023/08/29 09:02:37;;;;;;;2.70;0.70;;;19.10;99.90;;;;;;5024003;28;20033;-72
2023/08/29 09:05:03;;;;;;;2.25;0.65;;;19.10;99.90;;;;;;5025242;28;20096;-72
2023/08/29 09:07:29;;;;;;;6.20;0.50;;;19.10;99.90;;;;;;5006082;28;20037;-74
2023/08/29 09:10:07;;;;;;;1.55;0.30;;;19.20;99.90;;;;;;5024939;28;20078;-72
2023/08/29 09:12:34;;;;;;;3.13;0.40;;;19.20;99.90;;;;;;5024105;28;20044;-73
2023/08/29 09:15:04;;;;;;;2.83;0.80;;;19.10;99.90;;;;;;5025140;28;20729;-73
2023/08/29 09:17:30;;;;;;;;;;;19.10;99.90;;;;;;5024453;28;20041;-73
2023/08/29 09:19:59;;;;;;;2.28;0.55;;;19.10;99.90;;;;;;5007108;28;19913;-72
2023/08/29 09:22:26;;;;;;;0.47;0.40;;;19.10;99.90;;;;;;5024823;28;20069;-71
2023/08/29 09:24:52;;;;;;;2.60;0.57;;;19.10;99.90;;;;;;5006279;28;20037;-72
2023/08/29 09:27:17;;;;;;;1.08;0.57;;;19.10;99.90;;;;;;5024439;28;20367;-71
2023/08/29 09:29:43;;;;;;;1.52;0.85;;;19.10;99.90;;;;;;5024436;28;20030;-73
2023/08/29 09:32:15;;;;;;;1.38;0.63;;;19.00;99.90;;;;;;5023559;28;21451;-70
2023/08/29 09:34:41;;;;;;;1.20;0.50;;;19.00;99.90;;;;;;5024723;28;20041;-71
2023/08/29 09:37:10;;;;;;;1.05;0.77;;;18.90;99.90;;;;;;5022131;28;20057;-75
2023/08/29 09:39:36;;;;;;;3.88;1.15;;;18.80;99.90;;;;;;5024127;28;20032;-73
2023/08/29 09:42:04;;;;;;;2.28;1.33;;;18.80;99.90;;;;;;5026224;28;20073;-73
2023/08/29 09:44:36;;;;;;;2.10;1.17;;;18.80;99.90;;;;;;5009643;28;20480;-71
2023/08/29 09:47:01;;;;;;;1.80;1.15;;;18.80;99.90;;;;;;5028296;28;20489;-70
2023/08/29 09:49:47;;;;;;;3.38;1.00;;;19.00;99.90;;;;;;5027873;28;20041;-71
2023/08/29 09:52:14;;;;;;;1.45;0.93;;;19.20;99.90;;;;;;5025553;28;20416;-71
2023/08/29 09:54:52;;;;;;;1.65;1.40;;;19.30;99.90;;;;;;5027838;28;20103;-72
2023/08/29 09:57:19;;;;;;;2.47;1.50;;;19.40;99.90;;;;;;5027371;28;20140;-71
2023/08/29 09:59:46;;;;;;;2.38;1.50;;;19.50;99.90;;;;;;5026856;28;20500;-71
2023/08/29 10:02:13;;;;;;;2.20;1.50;;;19.50;99.90;;;;;;5027544;28;20098;-71
2023/08/29 10:04:45;;;;;;;2.22;1.30;;;19.50;99.90;;;;;;5027578;28;20052;-71
2023/08/29 10:07:25;;;;;;;2.45;1.25;;;19.60;99.90;;;;;;5024319;28;20038;-73
2023/08/29 10:09:51;;;;;;;;;;;19.80;99.90;;;;;;5026244;28;20041;-71
2023/08/29 10:12:17;;;;;;;3.78;2.00;;;20.00;99.90;;;;;;5025656;28;19913;-72
2023/08/29 10:14:44;;;;;;;3.10;1.73;;;20.10;99.90;;;;;;5021860;28;20045;-72
2023/08/29 10:17:12;;;;;;;4.07;1.75;;;20.20;99.90;;;;;;5026878;28;20048;-72
2023/08/29 10:19:39;;;;;;;3.58;2.30;;;20.30;99.90;;;;;;5027351;28;20504;-72
2023/08/29 10:22:08;;;;;;;5.95;2.13;;;20.50;99.90;;;;;;5026910;28;20033;-71
2023/08/29 10:24:36;;;;;;;2.75;1.60;;;20.40;99.90;;;;;;5026824;28;20037;-73
2023/08/29 10:27:03;;;;;;;5.38;2.35;;;20.30;99.90;;;;;;5027805;28;20496;-74
2023/08/29 10:29:30;;;;;;;6.40;2.30;;;20.10;99.90;;;;;;5026873;28;20111;-73
2023/08/29 10:31:57;;;;;;;2.63;2.03;;;19.90;99.90;;;;;;5021917;28;20039;-72
2023/08/29 10:34:24;;;;;;;2.72;2.22;;;19.80;99.90;;;;;;5008418;28;20505;-73
2023/08/29 10:36:50;;;;;;;3.17;2.22;;;19.70;99.90;;;;;;5007000;28;20057;-72
2023/08/29 10:39:15;;;;;;;4.97;2.45;;;19.60;99.90;;;;;;5022281;28;20029;-73
2023/08/29 10:41:48;;;;;;;3.78;1.88;;;19.60;99.90;;;;;;5024333;28;20033;-73
2023/08/29 10:44:36;;;;;;;8.25;2.20;;;19.60;99.90;;;;;;5003218;28;20606;-73
2023/08/29 10:47:26;;;;;;;5.28;2.22;;;19.50;99.90;;;;;;5025270;28;20041;-73
2023/08/29 10:50:03;;;;;;;3.20;2.35;;;19.60;99.90;;;;;;5004010;28;20436;-72
2023/08/29 10:52:41;;;;;;;4.15;2.75;;;19.60;99.90;;;;;;5025654;28;20045;-71
2023/08/29 10:55:24;;;;;;;3.55;2.15;;;19.60;99.90;;;;;;5024747;28;20034;-71
2023/08/29 10:57:58;;;;;;;3.67;2.55;;;19.70;99.90;;;;;;5020396;28;20068;-71
2023/08/29 11:00:42;;;;;;;4.82;2.63;;;19.70;99.90;;;;;;5025284;28;20040;-72
2023/08/29 11:03:08;;;;;;;5.43;3.03;;;19.70;99.90;;;;;;5025543;28;20397;-72
2023/08/29 11:05:39;;;;;;;3.70;2.70;;;19.70;99.90;;;;;;5025255;28;20224;-71
2023/08/29 11:08:23;;;;;;;6.20;2.60;;;19.70;99.90;;;;;;5024912;28;20042;-73
2023/08/29 11:11:22;;;;;;;4.22;2.80;;;19.80;99.90;;;;;;5018982;28;20033;-72
2023/08/29 11:14:01;;;;;;;4.53;2.70;;;19.70;99.90;;;;;;5020985;28;20525;-73
2023/08/29 11:16:28;;;;;;;2.92;2.03;;;19.70;99.90;;;;;;5021579;28;20063;-72
2023/08/29 11:19:04;;;;;;;5.35;2.55;;;19.70;99.90;;;;;;5024371;28;20112;-72
2023/08/29 11:21:30;;;;;;;5.45;2.30;;;19.70;99.90;;;;;;5024601;28;20474;-73
2023/08/29 11:23:58;;;;;;;4.43;1.92;;;19.70;99.90;;;;;;5025562;28;20829;-71
2023/08/29 11:26:27;;;;;;;5.57;2.50;;;19.80;99.90;;;;;;5025193;28;20038;-71
2023/08/29 11:28:53;;;;;;;8.80;2.15;;;19.90;99.90;;;;;;5024776;28;20513;-72
2023/08/29 11:31:19;;;;;;;6.72;2.15;;;19.90;99.90;;;;;;5023357;28;20038;-73
2023/08/29 11:33:48;;;;;;;6.30;2.30;;;19.90;99.90;;;;;;5025508;28;20030;-73
2023/08/29 11:36:15;;;;;;;3.40;1.70;;;19.80;99.90;;;;;;5024402;28;20457;-73
2023/08/29 11:38:43;;;;;;;3.97;2.08;;;19.80;99.90;;;;;;5024271;28;20523;-71
2023/08/29 11:41:10;;;;;;;2.67;1.40;;;19.80;99.90;;;;;;5024024;28;20092;-72
2023/08/29 11:43:36;;;;;;;5.22;2.13;;;19.70;99.90;;;;;;5024714;28;20030;-73
2023/08/29 11:46:03;;;;;;;3.83;1.95;;;19.70;99.90;;;;;;5024892;28;20056;-73
2023/08/29 11:48:31;;;;;;;4.60;1.88;;;19.60;99.90;;;;;;5022728;28;20041;-74
2023/08/29 11:51:00;;;;;;;3.53;2.28;;;19.60;99.90;;;;;;5007218;28;20029;-73
2023/08/29 11:53:31;;;;;;;4.35;2.70;;;19.70;99.90;;;;;;5007189;28;20041;-72
2023/08/29 11:55:58;;;;;;;4.13;2.40;;;19.80;99.90;;;;;;5024056;28;20068;-73
2023/08/29 11:58:26;;;;;;;5.32;2.33;;;19.70;99.90;;;;;;5023599;28;20076;-73
2023/08/29 12:00:53;;;;;;;5.70;2.63;;;19.70;99.90;;;;;;5024849;28;20121;-72
2023/08/29 12:03:20;;;;;;;5.63;2.47;;;19.60;99.90;;;;;;5024319;28;20076;-72
2023/08/29 12:05:47;;;;;;;3.53;2.45;;;19.60;99.90;;;;;;5024253;28;20061;-72
2023/08/29 12:08:12;;;;;;;4.63;2.80;;;19.50;99.90;;;;;;5022088;28;20201;-73
2023/08/29 12:10:48;;;;;;;3.85;2.22;;;19.50;99.90;;;;;;5024064;28;20037;-72
2023/08/29 12:13:14;;;;;;;5.30;2.75;;;19.50;99.90;;;;;;5020692;28;20104;-71
2023/08/29 12:15:40;;;;;;;3.88;2.53;;;19.70;99.90;;;;;;5024221;28;20030;-71
2023/08/29 12:18:05;;;;;;;6.60;2.92;;;19.70;99.90;;;;;;5024779;28;20091;-72
2023/08/29 12:20:33;;;;;;;5.45;2.50;;;19.90;99.90;;;;;;5006582;28;20030;-72
2023/08/29 12:22:59;;;;;;;3.58;2.60;;;20.00;99.90;;;;;;5006204;28;20036;-73
2023/08/29 12:25:25;;;;;;;3.47;2.35;;;20.10;99.90;;;;;;5022360;28;20030;-70
2023/08/29 12:27:50;;;;;;;4.78;2.30;;;20.20;99.90;;;;;;5023791;28;20021;-73
2023/08/29 12:30:16;;;;;;;3.95;2.55;;;20.20;99.90;;;;;;5024075;28;20112;-73
2023/08/29 12:32:46;;;;;;;5.80;2.55;;;20.10;99.90;;;;;;5024218;28;20041;-73
2023/08/29 12:35:13;;;;;;;6.70;2.70;;;20.00;99.90;;;;;;5006147;28;20021;-72
2023/08/29 12:37:39;;;;;;;3.60;2.05;;;20.10;99.90;;;;;;5021115;28;20173;-72
2023/08/29 12:40:08;;;;;;;3.42;1.90;;;20.10;99.90;;;;;;5024954;28;20064;-73
2023/08/29 12:42:35;;;;;;;6.78;2.25;;;20.20;99.90;;;;;;5021132;28;20045;-71
2023/08/29 12:45:01;;;;;;;3.22;2.20;;;20.20;99.90;;;;;;5006371;28;20041;-71
2023/08/29 12:47:26;;;;;;;2.38;1.50;;;20.10;99.90;;;;;;5023566;28;20030;-72